createdAt,value
2018-09-10T00:02:12.764Z,9.37
2018-09-10T00:04:47.570Z,8.87
2018-09-10T00:07:16.680Z,9.23
2018-09-10T00:09:45.625Z,9.93
2018-09-10T00:12:21.692Z,9.70
2018-09-10T00:14:50.513Z,11.43
2018-09-10T00:17:19.530Z,8.03
2018-09-10T00:19:48.893Z,13.00
2018-09-10T00:22:17.841Z,9.03
2018-09-10T00:24:52.448Z,9.90
2018-09-10T00:27:24.885Z,16.43
2018-09-10T00:29:54.524Z,10.80
2018-09-10T00:32:25.511Z,10.60
2018-09-10T00:34:55.314Z,12.20
2018-09-10T00:37:24.176Z,8.47
2018-09-10T00:39:53.231Z,10.07
2018-09-10T00:42:22.834Z,7.77
2018-09-10T00:44:51.989Z,9.07
2018-09-10T00:47:20.844Z,8.50
2018-09-10T00:49:49.921Z,9.30
2018-09-10T00:52:18.814Z,10.50
2018-09-10T00:54:47.661Z,9.47
2018-09-10T00:57:16.988Z,9.33
2018-09-10T00:59:45.881Z,10.93
2018-09-10T01:02:20.716Z,13.60
2018-09-10T01:04:54.226Z,9.83
2018-09-10T01:07:23.743Z,11.30
2018-09-10T01:09:52.774Z,11.20
2018-09-10T01:12:21.869Z,8.97
2018-09-10T01:14:52.435Z,10.83
2018-09-10T01:17:26.841Z,10.50
2018-09-10T01:19:56.433Z,11.50
2018-09-10T01:22:29.055Z,11.10
2018-09-10T01:25:01.881Z,10.27
2018-09-10T01:27:30.938Z,9.97
2018-09-10T01:29:59.835Z,10.67
2018-09-10T01:32:29.280Z,9.40
2018-09-10T01:35:04.307Z,9.33
2018-09-10T01:37:34.657Z,10.80
2018-09-10T01:40:07.135Z,10.57
2018-09-10T01:42:36.574Z,11.40
2018-09-10T01:45:16.432Z,14.67
2018-09-10T01:47:52.897Z,9.87
2018-09-10T01:50:25.376Z,11.80
2018-09-10T01:52:55.005Z,10.27
2018-09-10T01:55:30.093Z,13.33
2018-09-10T01:57:59.255Z,9.57
2018-09-10T02:00:32.096Z,12.30
2018-09-10T02:03:05.408Z,9.67
2018-09-10T02:05:34.401Z,14.57
2018-09-10T02:08:03.339Z,11.80
2018-09-10T02:10:32.815Z,10.30
2018-09-10T02:13:02.750Z,12.10
2018-09-10T02:15:32.349Z,10.53
2018-09-10T02:18:01.311Z,10.50
2018-09-10T02:20:30.283Z,14.20
2018-09-10T02:22:59.837Z,11.00
2018-09-10T02:25:29.829Z,11.27
2018-09-10T02:28:00.131Z,11.50
2018-09-10T02:30:29.260Z,12.20
2018-09-10T02:32:58.420Z,11.30
2018-09-10T02:35:28.911Z,10.27
2018-09-10T02:37:58.023Z,13.03
2018-09-10T02:40:26.968Z,10.53
2018-09-10T02:42:56.320Z,13.33
2018-09-10T02:45:25.276Z,10.63
2018-09-10T02:47:54.551Z,12.17
2018-09-10T02:50:29.050Z,14.60
2018-09-10T02:52:58.133Z,12.03
2018-09-10T02:55:27.072Z,11.77
2018-09-10T02:57:56.026Z,11.00
2018-09-10T03:00:25.564Z,14.07
2018-09-10T03:02:55.184Z,11.90
2018-09-10T03:05:24.483Z,10.00
2018-09-10T03:08:04.437Z,11.77
2018-09-10T03:10:37.004Z,11.40
2018-09-10T03:13:12.091Z,13.00
2018-09-10T03:15:58.972Z,17.53
2018-09-10T03:18:40.482Z,12.67
2018-09-10T03:21:09.731Z,10.07
2018-09-10T03:23:38.800Z,14.73
2018-09-10T03:26:07.950Z,10.80
2018-09-10T03:28:37.521Z,12.77
2018-09-10T03:31:06.495Z,12.33
2018-09-10T03:33:35.715Z,13.97
2018-09-10T03:36:05.940Z,13.20
2018-09-10T03:38:34.903Z,13.03
2018-09-10T03:41:03.926Z,15.97
2018-09-10T03:43:32.872Z,13.93
2018-09-10T03:46:01.785Z,11.93
2018-09-10T03:48:31.744Z,14.73
2018-09-10T03:51:02.018Z,11.60
2018-09-10T03:53:38.990Z,10.33
2018-09-10T03:56:08.820Z,10.80
2018-09-10T03:58:37.720Z,12.87
2018-09-10T04:01:06.914Z,11.03
2018-09-10T04:03:35.926Z,11.13
2018-09-10T04:06:17.432Z,13.43
2018-09-10T04:08:46.765Z,11.10
2018-09-10T04:11:16.761Z,12.43
2018-09-10T04:13:45.686Z,11.20
2018-09-10T04:16:21.263Z,12.77
2018-09-10T04:18:50.397Z,13.27
2018-09-10T04:21:19.681Z,13.80
2018-09-10T04:23:49.293Z,12.20
2018-09-10T04:26:18.317Z,14.00
2018-09-10T04:28:47.460Z,13.33
2018-09-10T04:31:16.793Z,14.67
2018-09-10T04:33:46.026Z,15.63
2018-09-10T04:36:15.659Z,15.23
2018-09-10T04:38:45.889Z,15.67
2018-09-10T04:41:22.474Z,12.17
2018-09-10T04:43:52.091Z,12.40
2018-09-10T04:46:21.017Z,11.93
2018-09-10T04:48:49.852Z,12.17
2018-09-10T04:51:19.324Z,12.50
2018-09-10T04:53:48.324Z,12.90
2018-09-10T04:56:17.421Z,12.23
2018-09-10T04:58:46.469Z,15.37
2018-09-10T05:01:15.920Z,11.90
2018-09-10T05:03:45.048Z,12.53
2018-09-10T05:06:19.927Z,12.67
2018-09-10T05:08:49.188Z,11.40
2018-09-10T05:11:18.326Z,10.97
2018-09-10T05:13:47.590Z,12.93
2018-09-10T05:16:16.745Z,12.33
2018-09-10T05:18:45.903Z,10.07
2018-09-10T05:21:14.865Z,11.63
2018-09-10T05:23:43.948Z,10.77
2018-09-10T05:26:13.413Z,14.50
2018-09-10T05:28:42.314Z,10.03
2018-09-10T05:31:11.252Z,14.13
2018-09-10T05:33:40.313Z,12.63
2018-09-10T05:36:09.067Z,13.53
2018-09-10T05:38:38.445Z,13.10
2018-09-10T05:41:07.650Z,22.97
2018-09-10T05:43:36.750Z,10.73
2018-09-10T05:46:05.862Z,12.37
2018-09-10T05:48:34.984Z,11.27
2018-09-10T05:51:21.399Z,14.50
2018-09-10T05:54:08.413Z,12.60
2018-09-10T05:56:38.419Z,11.67
2018-09-10T05:59:07.535Z,12.20
2018-09-10T06:01:36.992Z,14.80
2018-09-10T06:04:06.573Z,11.30
2018-09-10T06:06:42.727Z,13.97
2018-09-10T06:09:17.088Z,12.37
2018-09-10T06:11:46.444Z,11.87
2018-09-10T06:14:15.394Z,13.47
2018-09-10T06:16:44.765Z,12.60
2018-09-10T06:19:14.365Z,12.13
2018-09-10T06:21:43.225Z,11.67
2018-09-10T06:24:12.201Z,11.47
2018-09-10T06:26:41.611Z,15.70
2018-09-10T06:29:10.562Z,11.43
2018-09-10T06:31:39.703Z,11.33
2018-09-10T06:34:09.172Z,12.17
2018-09-10T06:36:38.172Z,15.60
2018-09-10T06:39:10.564Z,13.73
2018-09-10T06:41:46.642Z,14.33
2018-09-10T06:44:21.245Z,11.63
2018-09-10T06:46:56.436Z,10.97
2018-09-10T06:49:25.491Z,12.50
2018-09-10T07:03:36.184Z,14.60
2018-09-10T07:06:20.069Z,15.10
2018-09-10T07:08:49.089Z,13.10
2018-09-10T07:11:18.182Z,12.00
2018-09-10T07:13:48.372Z,15.47
2018-09-10T07:16:20.702Z,11.60
2018-09-10T07:18:54.728Z,13.57
2018-09-10T07:21:23.920Z,12.77
2018-09-10T07:23:54.480Z,11.83
2018-09-10T07:26:29.030Z,16.83
2018-09-10T07:28:57.959Z,17.73
2018-09-10T07:31:27.909Z,11.97
2018-09-10T07:33:56.694Z,14.80
2018-09-10T07:36:26.055Z,13.45
2018-09-10T07:38:55.208Z,14.30
2018-09-10T07:41:24.246Z,11.23
2018-09-10T07:43:53.299Z,14.43
2018-09-10T07:46:23.037Z,13.33
2018-09-10T07:48:52.089Z,15.08
2018-09-10T07:51:40.866Z,10.50
2018-09-10T07:54:09.772Z,11.07
2018-09-10T07:56:38.728Z,16.07
2018-09-10T07:59:08.759Z,14.47
2018-09-10T08:01:38.865Z,10.95
2018-09-10T08:04:07.890Z,12.55
2018-09-10T08:06:36.975Z,10.95
2018-09-10T08:09:08.124Z,11.73
2018-09-10T08:11:37.704Z,9.40
2018-09-10T08:14:06.846Z,8.78
2018-09-10T08:16:35.922Z,9.28
2018-09-10T08:19:11.868Z,10.05
2018-09-10T08:21:41.005Z,13.08
2018-09-10T08:24:10.119Z,14.03
2018-09-10T08:26:39.644Z,7.28
2018-09-10T08:29:11.866Z,9.18
2018-09-10T08:37:44.605Z,8.05
2018-09-10T08:40:17.257Z,8.95
2018-09-10T08:42:47.722Z,9.65
2018-09-10T08:45:18.878Z,9.43
2018-09-10T08:47:49.090Z,11.45
2018-09-10T08:50:18.788Z,9.18
2018-09-10T08:52:50.667Z,10.10
2018-09-10T08:55:21.645Z,7.62
2018-09-10T08:57:58.055Z,8.10
2018-09-10T09:00:27.591Z,8.50
2018-09-10T09:02:59.357Z,6.62
2018-09-10T09:05:28.994Z,8.80
2018-09-10T09:07:57.921Z,8.03
2018-09-10T09:10:26.949Z,8.85
2018-09-10T09:12:56.271Z,9.00
2018-09-10T09:15:25.337Z,9.80
2018-09-10T09:17:54.322Z,9.28
2018-09-10T09:20:24.304Z,10.32
2018-09-10T09:22:53.362Z,8.35
2018-09-10T09:25:22.451Z,9.60
2018-09-10T09:27:52.453Z,8.60
2018-09-10T09:30:27.969Z,8.15
2018-09-10T09:32:56.863Z,9.30
2018-09-10T09:35:30.777Z,7.35
2018-09-10T09:40:05.864Z,7.92
2018-09-10T09:42:40.005Z,7.42
2018-09-10T09:46:17.087Z,6.40
2018-09-10T09:48:46.107Z,6.20
2018-09-10T09:51:15.033Z,7.45
2018-09-10T09:53:44.112Z,7.72
2018-09-10T09:56:13.181Z,7.75
2018-09-10T09:58:42.144Z,7.60
2018-09-10T10:01:16.070Z,7.35
2018-09-10T10:03:49.872Z,7.47
2018-09-10T10:06:18.847Z,9.13
2018-09-10T10:08:47.868Z,8.45
2018-09-10T10:11:16.979Z,7.80
2018-09-10T10:13:45.989Z,9.03
2018-09-10T10:16:15.196Z,10.15
2018-09-10T10:18:44.157Z,10.00
2018-09-10T10:21:13.237Z,8.03
2018-09-10T10:23:42.233Z,8.80
2018-09-10T10:26:11.306Z,9.95
2018-09-10T10:28:40.716Z,9.10
2018-09-10T10:31:09.701Z,8.53
2018-09-10T10:33:38.698Z,10.00
2018-09-10T10:36:08.281Z,6.47
2018-09-10T10:38:37.084Z,8.93
2018-09-10T10:41:05.939Z,7.58
2018-09-10T10:43:35.269Z,8.93
2018-09-10T10:46:04.177Z,14.47
2018-09-10T10:48:33.217Z,7.40
2018-09-10T10:51:02.594Z,9.00
2018-09-10T10:53:31.599Z,8.43
2018-09-10T10:56:00.605Z,9.55
2018-09-10T10:58:29.800Z,7.03
2018-09-10T11:00:58.823Z,6.15
2018-09-10T11:03:27.828Z,7.70
2018-09-10T11:05:56.868Z,8.28
2018-09-10T11:08:25.833Z,6.50
2018-09-10T11:10:54.808Z,6.08
2018-09-10T11:13:24.168Z,8.73
2018-09-10T11:15:53.061Z,6.40
2018-09-10T11:18:21.969Z,10.60
2018-09-10T11:20:50.924Z,8.43
2018-09-10T11:23:19.711Z,7.83
2018-09-10T11:25:48.650Z,7.87
2018-09-10T11:28:17.561Z,8.33
2018-09-10T11:30:46.559Z,6.67
2018-09-10T11:33:15.572Z,7.25
2018-09-10T11:35:44.560Z,6.25
2018-09-10T11:38:13.625Z,5.25
2018-09-10T11:40:42.656Z,8.20
2018-09-10T11:43:11.922Z,6.67
2018-09-10T11:45:40.676Z,7.17
2018-09-10T11:48:09.620Z,6.37
2018-09-10T11:50:38.554Z,5.75
2018-09-10T11:53:07.439Z,7.30
2018-09-10T11:55:36.448Z,8.75
2018-09-10T11:58:05.551Z,11.70
2018-09-10T12:00:34.624Z,8.13
2018-09-10T12:03:03.692Z,6.42
2018-09-10T12:05:32.705Z,8.60
2018-09-10T12:08:01.613Z,6.35
2018-09-10T12:10:30.533Z,7.20
2018-09-10T12:12:59.631Z,7.65
2018-09-10T12:15:28.747Z,5.50
2018-09-10T12:17:57.838Z,7.03
2018-09-10T12:20:27.147Z,5.35
2018-09-10T12:22:56.223Z,7.60
2018-09-10T12:25:25.135Z,6.12
2018-09-10T12:27:54.441Z,6.75
2018-09-10T12:30:23.471Z,7.78
2018-09-10T12:32:53.336Z,6.97
2018-09-10T12:35:22.259Z,6.35
2018-09-10T12:37:51.099Z,6.53
2018-09-10T12:40:19.996Z,7.35
2018-09-10T12:42:49.057Z,10.90
2018-09-10T12:45:17.934Z,5.22
2018-09-10T12:47:46.885Z,6.35
2018-09-10T12:50:16.164Z,6.40
2018-09-10T12:52:45.119Z,5.85
2018-09-10T12:55:14.208Z,10.03
2018-09-10T12:57:43.283Z,5.85
2018-09-10T13:00:12.346Z,6.95
2018-09-10T13:02:41.351Z,6.90
2018-09-10T13:05:10.320Z,5.87
2018-09-10T13:07:39.358Z,7.95
2018-09-10T13:10:08.289Z,10.13
2018-09-10T13:12:37.235Z,8.80
2018-09-10T13:15:06.394Z,7.85
2018-09-10T13:17:35.448Z,5.20
2018-09-10T13:20:04.751Z,7.90
2018-09-10T13:22:33.808Z,7.80
2018-09-10T13:25:02.620Z,8.20
2018-09-10T13:27:31.611Z,8.15
2018-09-10T13:30:00.742Z,5.95
2018-09-10T13:32:29.808Z,10.70
2018-09-10T13:34:59.142Z,8.15
2018-09-10T13:37:28.127Z,5.92
2018-09-10T13:39:57.046Z,6.58
2018-09-10T13:42:26.202Z,5.67
2018-09-10T13:44:55.220Z,8.93
2018-09-10T13:47:24.136Z,7.87
2018-09-10T13:49:53.612Z,5.25
2018-09-10T13:52:22.538Z,4.75
2018-09-10T13:54:51.589Z,7.08
2018-09-10T13:57:20.776Z,5.72
2018-09-10T13:59:49.866Z,5.47
2018-09-10T14:02:18.899Z,7.33
2018-09-10T14:04:48.123Z,10.18
2018-09-10T14:07:17.090Z,7.78
2018-09-10T14:09:46.356Z,8.93
2018-09-10T14:12:15.476Z,9.18
2018-09-10T14:14:44.532Z,6.97
2018-09-10T14:17:13.758Z,6.65
2018-09-10T14:19:42.781Z,7.35
2018-09-10T14:22:11.729Z,6.62
2018-09-10T14:24:40.635Z,9.13
2018-09-10T14:27:09.637Z,5.50
2018-09-10T14:29:38.672Z,5.72
2018-09-10T14:32:07.582Z,7.30
2018-09-10T14:34:36.510Z,5.87
2018-09-10T14:37:05.711Z,6.75
2018-09-10T14:39:34.544Z,6.40
2018-09-10T14:42:03.986Z,8.18
2018-09-10T14:44:33.017Z,5.20
2018-09-10T14:47:01.965Z,6.85
2018-09-10T14:49:31.470Z,6.70
2018-09-10T14:52:00.515Z,7.70
2018-09-10T14:54:29.510Z,7.50
2018-09-10T14:56:58.849Z,7.00
2018-09-10T14:59:27.792Z,6.95
2018-09-10T15:01:56.704Z,7.30
2018-09-10T15:04:26.145Z,7.28
2018-09-10T15:06:55.196Z,9.05
2018-09-10T15:09:24.178Z,8.70
2018-09-10T15:11:53.388Z,5.92
2018-09-10T15:14:22.379Z,5.50
2018-09-10T15:16:51.489Z,7.08
2018-09-10T15:19:20.468Z,6.37
2018-09-10T15:21:49.398Z,7.58
2018-09-10T15:24:18.339Z,11.43
2018-09-10T15:26:47.845Z,6.10
2018-09-10T15:29:16.930Z,11.95
2018-09-10T15:31:46.850Z,5.80
2018-09-10T15:34:16.069Z,5.83
2018-09-10T15:36:45.150Z,6.83
2018-09-10T15:39:14.100Z,8.55
2018-09-10T15:41:43.192Z,6.00
2018-09-10T15:44:12.019Z,6.85
2018-09-10T15:46:41.051Z,6.35
2018-09-10T15:49:10.160Z,6.33
2018-09-10T15:51:39.199Z,8.40
2018-09-10T15:54:08.186Z,6.12
2018-09-10T15:56:37.298Z,8.55
2018-09-10T15:59:06.284Z,8.15
2018-09-10T16:01:35.520Z,7.72
2018-09-10T16:04:04.489Z,8.18
2018-09-10T16:06:33.597Z,8.35
2018-09-10T16:09:02.710Z,6.22
2018-09-10T16:11:31.868Z,7.08
2018-09-10T16:14:00.847Z,7.00
2018-09-10T16:16:29.930Z,7.75
2018-09-10T16:18:59.300Z,10.23
2018-09-10T16:21:28.609Z,7.95
2018-09-10T16:23:57.709Z,7.17
2018-09-10T16:26:26.982Z,11.08
2018-09-10T16:28:56.048Z,8.70
2018-09-10T16:31:24.966Z,11.60
2018-09-10T16:33:54.081Z,17.40
2018-09-10T16:36:23.140Z,8.63
2018-09-10T16:38:52.124Z,10.68
2018-09-10T16:41:21.255Z,8.03
2018-09-10T16:43:50.494Z,7.47
2018-09-10T16:46:19.412Z,8.78
2018-09-10T16:48:48.555Z,8.88
2018-09-10T16:51:17.623Z,9.60
2018-09-10T16:53:46.773Z,9.80
2018-09-10T16:56:16.090Z,12.65
2018-09-10T16:58:45.162Z,10.13
2018-09-10T17:01:14.163Z,8.43
2018-09-10T17:03:43.530Z,7.87
2018-09-10T17:06:12.570Z,7.87
2018-09-10T17:08:41.565Z,8.95
2018-09-10T17:11:10.802Z,10.40
2018-09-10T17:13:39.920Z,10.15
2018-09-10T17:16:08.918Z,13.15
2018-09-10T17:18:37.852Z,10.75
2018-09-10T17:21:06.886Z,8.08
2018-09-10T17:23:35.891Z,14.13
2018-09-10T17:26:05.137Z,9.08
2018-09-10T17:28:34.155Z,8.95
2018-09-10T17:31:03.105Z,11.57
2018-09-10T17:33:32.104Z,10.10
2018-09-10T17:36:01.074Z,9.88
2018-09-10T17:38:30.118Z,11.08
2018-09-10T17:40:59.072Z,10.20
2018-09-10T17:43:28.072Z,8.38
2018-09-10T17:45:57.004Z,9.73
2018-09-10T17:48:25.824Z,12.47
2018-09-10T17:50:54.827Z,12.63
2018-09-10T17:53:23.963Z,13.70
2018-09-10T17:55:53.039Z,18.13
2018-09-10T17:58:22.084Z,16.13
2018-09-10T18:00:51.592Z,12.75
2018-09-10T18:03:20.449Z,15.80
2018-09-10T18:05:49.219Z,16.07
2018-09-10T18:08:18.250Z,13.30
2018-09-10T18:10:47.263Z,11.93
2018-09-10T18:13:16.218Z,14.73
2018-09-10T18:15:45.073Z,15.10
2018-09-10T18:18:14.134Z,12.93
2018-09-10T18:20:43.107Z,14.03
2018-09-10T18:23:11.904Z,18.80
2018-09-10T18:25:41.216Z,15.47
2018-09-10T18:28:10.193Z,16.50
2018-09-10T18:30:39.132Z,16.13
2018-09-10T18:33:08.654Z,19.67
2018-09-10T18:35:37.584Z,41.60
2018-09-10T18:38:06.530Z,15.87
2018-09-10T18:40:35.430Z,19.27
2018-09-10T18:43:04.204Z,21.30
2018-09-10T18:45:33.264Z,17.90
2018-09-10T18:48:02.462Z,19.70
2018-09-10T18:50:31.321Z,12.03
2018-09-10T18:53:00.227Z,13.57
2018-09-10T18:55:29.250Z,16.23
2018-09-10T18:57:58.266Z,14.20
2018-09-10T19:00:30.659Z,12.27
2018-09-10T19:03:00.694Z,13.63
2018-09-10T19:05:31.196Z,12.43
2018-09-10T19:08:02.022Z,11.47
2018-09-10T19:10:31.301Z,10.27
2018-09-10T19:13:02.124Z,19.40
2018-09-10T19:15:34.365Z,13.93
2018-09-10T19:18:04.351Z,13.63
2018-09-10T19:20:33.361Z,10.40
2018-09-10T19:23:02.238Z,12.70
2018-09-10T19:25:31.241Z,11.70
2018-09-10T19:28:00.288Z,13.00
2018-09-10T19:30:29.434Z,9.83
2018-09-10T19:32:58.892Z,13.37
2018-09-10T19:35:27.922Z,11.23
2018-09-10T19:37:59.218Z,13.43
2018-09-10T19:40:28.131Z,10.30
2018-09-10T19:42:56.946Z,11.57
2018-09-10T19:45:26.158Z,10.20
2018-09-10T19:47:55.054Z,18.83
2018-09-10T19:50:23.945Z,10.57
2018-09-10T19:52:52.999Z,10.90
2018-09-10T19:55:21.976Z,11.77
2018-09-10T19:57:50.980Z,11.53
2018-09-10T20:00:20.248Z,12.70
2018-09-10T20:02:49.056Z,12.37
2018-09-10T20:05:18.047Z,10.47
2018-09-10T20:07:47.225Z,10.43
2018-09-10T20:10:16.296Z,10.03
2018-09-10T20:12:45.291Z,17.00
2018-09-10T20:15:14.384Z,15.10
2018-09-10T20:17:43.241Z,14.43
2018-09-10T20:20:12.156Z,11.90
2018-09-10T20:22:41.381Z,15.07
2018-09-10T20:25:10.386Z,11.30
2018-09-10T20:27:39.366Z,11.10
2018-09-10T20:30:08.512Z,9.63
2018-09-10T20:32:37.460Z,12.23
2018-09-10T20:35:06.494Z,9.27
2018-09-10T20:37:35.476Z,11.13
2018-09-10T20:40:04.796Z,13.47
2018-09-10T20:42:33.933Z,10.97
2018-09-10T20:45:03.028Z,9.97
2018-09-10T20:47:32.036Z,9.77
2018-09-10T20:50:01.040Z,10.73
2018-09-10T20:52:30.181Z,12.57
2018-09-10T20:54:59.220Z,9.63
2018-09-10T20:57:28.223Z,12.57
2018-09-10T20:59:57.557Z,9.77
2018-09-10T21:02:26.561Z,8.00
2018-09-10T21:04:56.424Z,8.97
2018-09-10T21:07:27.457Z,11.30
2018-09-10T21:09:57.670Z,10.33
2018-09-10T21:12:27.937Z,11.40
2018-09-10T21:14:57.988Z,8.57
2018-09-10T21:17:29.409Z,7.60
2018-09-10T21:19:59.740Z,9.87
2018-09-10T21:22:29.926Z,9.10
2018-09-10T21:25:00.165Z,11.07
2018-09-10T21:27:30.334Z,10.23
2018-09-10T21:30:00.957Z,9.70
2018-09-10T21:32:33.080Z,8.27
2018-09-10T21:35:03.398Z,9.77
2018-09-10T21:37:34.037Z,9.00
2018-09-10T21:40:04.461Z,9.47
2018-09-10T21:42:36.932Z,8.23
2018-09-10T21:45:07.457Z,8.93
2018-09-10T21:47:38.185Z,8.53
2018-09-10T21:50:08.594Z,8.50
2018-09-10T21:52:38.887Z,9.07
2018-09-10T21:55:09.166Z,8.60
2018-09-10T21:57:39.161Z,8.27
2018-09-10T22:00:09.671Z,9.53
2018-09-10T22:02:39.773Z,7.90
2018-09-10T22:05:10.545Z,10.97
2018-09-10T22:07:41.781Z,11.63
2018-09-10T22:10:12.928Z,14.00
2018-09-10T22:12:44.576Z,10.77
2018-09-10T22:15:15.587Z,9.33
2018-09-10T22:17:46.385Z,11.20
2018-09-10T22:20:17.021Z,8.57
2018-09-10T22:22:47.403Z,8.53
2018-09-10T22:25:18.139Z,8.17
2018-09-10T22:27:48.502Z,9.50
2018-09-10T22:30:18.175Z,8.80
2018-09-10T22:32:49.653Z,8.47
2018-09-10T22:35:19.477Z,9.07
2018-09-10T22:37:50.725Z,7.93
2018-09-10T22:40:20.993Z,7.80
2018-09-10T22:42:53.585Z,8.50
2018-09-10T22:45:24.218Z,9.13
2018-09-10T22:47:53.510Z,9.70
2018-09-10T22:50:22.805Z,10.00
2018-09-10T22:52:51.788Z,7.30
2018-09-10T22:55:20.766Z,8.90
2018-09-10T22:57:49.653Z,8.37
2018-09-10T23:00:18.705Z,8.43
2018-09-10T23:02:48.099Z,8.17
2018-09-10T23:05:17.119Z,12.13
2018-09-10T23:07:46.116Z,8.43
2018-09-10T23:10:16.338Z,8.07
2018-09-10T23:12:45.327Z,9.37
2018-09-10T23:15:14.176Z,8.13
2018-09-10T23:17:43.317Z,7.00
2018-09-10T23:20:12.207Z,8.57
2018-09-10T23:22:41.201Z,10.10
2018-09-10T23:25:10.436Z,8.83
2018-09-10T23:27:39.370Z,9.67
2018-09-10T23:30:09.636Z,9.73
2018-09-10T23:32:38.756Z,10.73
2018-09-10T23:35:07.859Z,8.10
2018-09-10T23:37:36.789Z,8.20
2018-09-10T23:40:06.135Z,8.97
2018-09-10T23:42:35.085Z,9.23
2018-09-10T23:45:03.978Z,10.80
2018-09-10T23:47:35.503Z,10.10
2018-09-10T23:50:05.821Z,10.40
2018-09-10T23:52:34.725Z,9.73
2018-09-10T23:55:03.805Z,8.13
2018-09-10T23:57:32.717Z,9.23
